Time;durP1;ratioP1;P1;durP2;ratioP2;P2;SDS_P1;SDS_P2;PMS_P1;PMS_P2;Temp;Humidity;BMP_temperature;BMP_pressure;BME280_temperature;BME280_humidity;BME280_pressure;Samples;Min_cycle;Max_cycle;Signal;HPM_P1;HPM_P2
2022/10/26 00:01:50;;;;;;;1.50;0.80;;;12.30;99.90;;;;;;6139829;29;20303;-67
2022/10/26 00:04:55;;;;;;;0.80;0.80;;;12.30;99.90;;;;;;6139975;29;20303;-67
2022/10/26 00:08:01;;;;;;;0.65;0.65;;;12.30;99.90;;;;;;6140243;29;20299;-68
2022/10/26 00:11:06;;;;;;;0.80;0.80;;;12.30;99.90;;;;;;6126269;29;20308;-68
2022/10/26 00:14:12;;;;;;;4.93;0.80;;;12.20;99.90;;;;;;6116656;29;20296;-68
2022/10/26 00:17:18;;;;;;;0.90;0.90;;;12.20;99.90;;;;;;6116277;29;20299;-67
2022/10/26 00:20:23;;;;;;;0.90;0.90;;;12.10;99.90;;;;;;6115450;29;20322;-66
2022/10/26 00:23:28;;;;;;;1.00;1.00;;;12.00;99.90;;;;;;6116790;29;20275;-67
2022/10/26 00:26:33;;;;;;;2.38;1.10;;;12.10;99.90;;;;;;6116171;29;20291;-67
2022/10/26 00:29:38;;;;;;;1.27;1.00;;;12.20;99.90;;;;;;6099190;29;20455;-68
2022/10/26 00:32:44;;;;;;;1.00;1.00;;;12.20;99.90;;;;;;6116117;29;20279;-67
2022/10/26 00:35:52;;;;;;;1.00;1.00;;;12.20;99.90;;;;;;6116123;29;20319;-67
2022/10/26 00:38:58;;;;;;;0.90;0.90;;;12.20;99.90;;;;;;6116257;29;20268;-67
2022/10/26 00:42:03;;;;;;;1.00;1.00;;;12.20;99.90;;;;;;6115835;29;20303;-67
2022/10/26 00:45:20;;;;;;;0.77;0.77;;;12.10;99.90;;;;;;6116065;29;20299;-67
2022/10/26 00:48:29;;;;;;;1.10;1.10;;;12.10;99.90;;;;;;6116084;29;20447;-67
2022/10/26 00:51:38;;;;;;;0.85;0.85;;;12.10;99.90;;;;;;6115896;29;20311;-67
2022/10/26 00:54:44;;;;;;;1.00;0.98;;;12.10;99.90;;;;;;6116067;29;20276;-68
2022/10/26 00:57:50;;;;;;;1.23;1.00;;;12.10;99.90;;;;;;6115632;29;20272;-68
2022/10/26 01:00:55;;;;;;;0.95;0.95;;;12.20;99.90;;;;;;6115661;29;20308;-67
2022/10/26 01:04:01;;;;;;;1.00;1.00;;;12.20;99.90;;;;;;6116370;29;20268;-68
2022/10/26 01:07:07;;;;;;;1.25;1.25;;;12.20;99.90;;;;;;6115852;29;20316;-68
2022/10/26 01:10:14;;;;;;;1.42;1.38;;;11.90;99.90;;;;;;6121782;29;20299;-67
2022/10/26 01:13:19;;;;;;;1.50;1.50;;;11.90;99.90;;;;;;6139844;29;20275;-67
2022/10/26 01:16:46;;;;;;;1.40;1.30;;;11.90;99.90;;;;;;6139413;29;20295;-67
2022/10/26 01:20:39;;;;;;;1.60;1.50;;;12.00;99.90;;;;;;6138873;29;20313;-67
2022/10/26 01:24:05;;;;;;;1.38;1.38;;;11.90;99.90;;;;;;6139025;29;20283;-67
2022/10/26 01:27:23;;;;;;;1.40;1.40;;;11.80;99.90;;;;;;6138539;29;20299;-67
2022/10/26 01:30:33;;;;;;;1.00;1.00;;;11.80;99.90;;;;;;6139359;29;20479;-68
2022/10/26 01:33:43;;;;;;;1.00;1.00;;;11.70;99.90;;;;;;6142456;29;20276;-68
2022/10/26 01:36:53;;;;;;;0.90;0.90;;;11.70;99.90;;;;;;6126666;29;20303;-68
2022/10/26 01:40:03;;;;;;;0.90;0.90;;;11.80;99.90;;;;;;6143412;29;20299;-69
2022/10/26 01:43:11;;;;;;;0.90;0.90;;;11.80;99.90;;;;;;6143426;29;20611;-67
2022/10/26 01:46:18;;;;;;;2.80;1.10;;;11.80;99.90;;;;;;6143177;29;20299;-67
2022/10/26 01:49:32;;;;;;;1.10;1.10;;;11.60;99.90;;;;;;6143660;29;20270;-68
2022/10/26 01:52:37;;;;;;;1.00;1.00;;;11.60;99.90;;;;;;6142756;29;20281;-67
2022/10/26 01:55:49;;;;;;;1.15;1.15;;;11.60;99.90;;;;;;6142526;29;20294;-67
2022/10/26 01:59:18;;;;;;;1.27;0.90;;;11.60;99.90;;;;;;6142769;29;20459;-67
2022/10/26 02:02:44;;;;;;;1.00;1.00;;;11.60;99.90;;;;;;6142760;29;20303;-67
2022/10/26 02:06:01;;;;;;;0.90;0.90;;;11.60;99.90;;;;;;6142628;29;20299;-67
2022/10/26 02:09:13;;;;;;;0.80;0.80;;;11.50;99.90;;;;;;6142807;29;20299;-67
2022/10/26 02:12:26;;;;;;;0.85;0.85;;;11.60;99.90;;;;;;6119228;29;20583;-67
2022/10/26 02:15:39;;;;;;;0.80;0.80;;;11.50;99.90;;;;;;6118698;29;20291;-68
2022/10/26 02:18:52;;;;;;;0.80;0.80;;;11.50;99.90;;;;;;6119386;29;20271;-67
2022/10/26 02:22:04;;;;;;;0.70;0.70;;;11.50;99.90;;;;;;6118291;29;20304;-67
2022/10/26 02:25:16;;;;;;;0.80;0.80;;;11.50;99.90;;;;;;6118629;29;20299;-66
2022/10/26 02:28:25;;;;;;;0.68;0.68;;;11.50;99.90;;;;;;6118792;29;20309;-67
2022/10/26 02:31:31;;;;;;;0.70;0.70;;;11.50;99.90;;;;;;6118228;29;20303;-67
2022/10/26 02:34:39;;;;;;;0.70;0.70;;;11.60;99.90;;;;;;6118079;29;20268;-67
2022/10/26 02:37:45;;;;;;;0.60;0.60;;;11.50;99.90;;;;;;6119008;29;20276;-67
2022/10/26 02:40:52;;;;;;;0.60;0.60;;;11.50;99.90;;;;;;6118250;29;20486;-68
2022/10/26 02:44:02;;;;;;;1.35;0.70;;;11.40;99.90;;;;;;6118105;29;20299;-67
2022/10/26 02:47:07;;;;;;;0.68;0.68;;;11.30;99.90;;;;;;6118002;29;20301;-67
2022/10/26 02:50:15;;;;;;;0.63;0.63;;;11.40;99.90;;;;;;6101318;29;20299;-67
2022/10/26 02:53:26;;;;;;;0.60;0.60;;;11.40;99.90;;;;;;6118229;29;20271;-67
2022/10/26 02:56:35;;;;;;;0.70;0.70;;;11.50;99.90;;;;;;6117778;29;20295;-67
2022/10/26 02:59:46;;;;;;;0.70;0.70;;;11.40;99.90;;;;;;6117356;29;20272;-67
2022/10/26 03:02:56;;;;;;;0.55;0.55;;;11.40;99.90;;;;;;6132266;29;20298;-67
2022/10/26 03:06:02;;;;;;;0.70;0.70;;;11.40;99.90;;;;;;6125094;29;20268;-67
2022/10/26 03:09:07;;;;;;;0.50;0.50;;;11.40;99.90;;;;;;6140786;29;20506;-67
2022/10/26 03:12:12;;;;;;;0.60;0.60;;;11.40;99.90;;;;;;6122087;29;20276;-68
2022/10/26 03:15:17;;;;;;;0.80;0.80;;;11.20;99.90;;;;;;6118051;29;20280;-68
2022/10/26 03:18:22;;;;;;;0.60;0.60;;;11.20;99.90;;;;;;6117589;29;20299;-68
2022/10/26 03:21:28;;;;;;;0.70;0.70;;;11.20;99.90;;;;;;6094221;29;20277;-68
2022/10/26 03:24:33;;;;;;;0.73;0.73;;;11.20;99.90;;;;;;6093732;29;20308;-68
2022/10/26 03:27:39;;;;;;;0.70;0.70;;;11.20;99.90;;;;;;6093868;29;20296;-68
2022/10/26 03:30:44;;;;;;;0.77;0.77;;;11.20;99.90;;;;;;6094244;29;20277;-68
2022/10/26 03:33:49;;;;;;;1.35;0.70;;;11.20;99.90;;;;;;6093420;29;20480;-68
2022/10/26 03:36:55;;;;;;;0.70;0.70;;;11.00;99.90;;;;;;6102595;29;20268;-68
2022/10/26 03:40:00;;;;;;;0.60;0.60;;;11.10;99.90;;;;;;6117210;29;20606;-68
2022/10/26 03:43:05;;;;;;;0.80;0.80;;;11.20;99.90;;;;;;6116625;29;20467;-68
2022/10/26 03:46:11;;;;;;;0.60;0.60;;;11.20;99.90;;;;;;6117453;29;20276;-68
2022/10/26 03:49:16;;;;;;;0.60;0.60;;;11.10;99.90;;;;;;6117089;29;20295;-68
2022/10/26 03:52:23;;;;;;;0.70;0.70;;;11.10;99.90;;;;;;6116790;29;20280;-68
2022/10/26 03:55:28;;;;;;;0.63;0.63;;;11.10;99.90;;;;;;6116485;29;20291;-68
2022/10/26 03:58:32;;;;;;;0.60;0.60;;;11.00;99.90;;;;;;6117049;29;20304;-68
2022/10/26 04:01:38;;;;;;;0.77;0.77;;;11.00;99.90;;;;;;6117047;29;20272;-68
2022/10/26 04:04:43;;;;;;;0.80;0.80;;;11.00;99.90;;;;;;6115848;29;20295;-68
2022/10/26 04:07:54;;;;;;;0.75;0.75;;;11.00;99.90;;;;;;6116211;29;20296;-68
2022/10/26 04:10:59;;;;;;;0.70;0.70;;;11.00;99.90;;;;;;6126443;29;20264;-67
2022/10/26 04:14:09;;;;;;;0.70;0.70;;;11.00;99.90;;;;;;6140150;29;20295;-67
2022/10/26 04:17:14;;;;;;;0.68;0.68;;;11.00;99.90;;;;;;6139930;29;20279;-67
2022/10/26 04:20:19;;;;;;;0.63;0.63;;;11.00;99.90;;;;;;6140614;29;20271;-67
2022/10/26 04:23:25;;;;;;;0.70;0.70;;;11.00;99.90;;;;;;6139897;29;20373;-67
2022/10/26 04:26:30;;;;;;;0.70;0.70;;;11.00;99.90;;;;;;6140353;29;20465;-67
2022/10/26 04:29:35;;;;;;;0.70;0.70;;;11.00;99.90;;;;;;6139927;29;20307;-67
2022/10/26 04:32:40;;;;;;;1.00;1.00;;;11.10;99.90;;;;;;6139112;29;20622;-67
2022/10/26 04:35:46;;;;;;;1.10;1.02;;;11.00;99.90;;;;;;6139863;29;20271;-67
2022/10/26 04:38:53;;;;;;;1.27;0.90;;;10.90;99.90;;;;;;6139406;29;20299;-67
2022/10/26 04:41:57;;;;;;;2.17;1.00;;;10.90;99.90;;;;;;6140193;29;20275;-67
2022/10/26 04:45:02;;;;;;;0.90;0.90;;;10.90;99.90;;;;;;6139680;29;20483;-66
2022/10/26 04:48:11;;;;;;;0.80;0.80;;;11.00;99.90;;;;;;6139495;29;20298;-67
2022/10/26 04:51:16;;;;;;;0.70;0.70;;;11.00;99.90;;;;;;6140066;29;20276;-67
2022/10/26 04:54:22;;;;;;;0.85;0.80;;;10.90;99.90;;;;;;6139762;29;20310;-67
2022/10/26 04:57:27;;;;;;;0.80;0.80;;;10.90;99.90;;;;;;6139135;29;20568;-67
2022/10/26 05:00:32;;;;;;;0.73;0.73;;;10.90;99.90;;;;;;6140123;29;20276;-68
2022/10/26 05:03:37;;;;;;;0.95;0.93;;;10.90;99.90;;;;;;6139489;29;20311;-67
2022/10/26 05:06:42;;;;;;;0.75;0.75;;;10.90;99.90;;;;;;6140497;29;20279;-67
2022/10/26 05:09:49;;;;;;;1.13;1.13;;;10.90;99.90;;;;;;6142374;29;20298;-67
2022/10/26 05:12:54;;;;;;;1.42;1.42;;;10.90;99.90;;;;;;6096680;29;20287;-67
2022/10/26 05:15:59;;;;;;;0.70;0.70;;;10.90;99.90;;;;;;6119966;29;20284;-67
2022/10/26 05:19:04;;;;;;;1.20;0.85;;;10.90;99.90;;;;;;6120166;29;20375;-68
2022/10/26 05:22:12;;;;;;;0.90;0.90;;;10.80;99.90;;;;;;6119110;29;20277;-68
2022/10/26 05:25:18;;;;;;;0.70;0.70;;;10.80;99.90;;;;;;6119941;29;20296;-66
2022/10/26 05:28:23;;;;;;;0.70;0.70;;;10.80;99.90;;;;;;6119900;29;20299;-67
2022/10/26 05:31:28;;;;;;;0.63;0.63;;;10.80;99.90;;;;;;6120145;29;20281;-67
2022/10/26 05:34:33;;;;;;;0.73;0.73;;;10.80;99.90;;;;;;6119502;29;20299;-67
2022/10/26 05:37:44;;;;;;;0.70;0.70;;;10.80;99.90;;;;;;6119880;29;20300;-66
2022/10/26 05:40:51;;;;;;;0.70;0.70;;;10.80;99.90;;;;;;6112291;29;20276;-66
2022/10/26 05:43:56;;;;;;;0.90;0.85;;;10.70;99.90;;;;;;6119300;29;20307;-66
2022/10/26 05:47:01;;;;;;;0.90;0.90;;;10.70;99.90;;;;;;6120076;29;20275;-67
2022/10/26 05:50:06;;;;;;;0.73;0.73;;;10.80;99.90;;;;;;6118622;29;20284;-67
2022/10/26 05:53:14;;;;;;;1.10;0.90;;;10.70;99.90;;;;;;6119239;29;20299;-67
2022/10/26 05:56:34;;;;;;;0.70;0.70;;;10.60;99.90;;;;;;6119070;29;20279;-67
2022/10/26 05:59:39;;;;;;;0.90;0.90;;;10.60;99.90;;;;;;6118754;29;20311;-68
2022/10/26 06:03:07;;;;;;;0.80;0.80;;;10.70;99.90;;;;;;6119296;29;20299;-68
2022/10/26 06:06:14;;;;;;;0.85;0.85;;;10.80;99.90;;;;;;6119583;29;20304;-68
2022/10/26 06:09:19;;;;;;;0.70;0.70;;;10.80;99.90;;;;;;6118501;29;20600;-67
2022/10/26 06:12:26;;;;;;;0.68;0.68;;;10.80;99.90;;;;;;6140092;29;20483;-67
2022/10/26 06:15:34;;;;;;;1.00;0.80;;;10.90;99.90;;;;;;6142738;29;20593;-67
2022/10/26 06:18:49;;;;;;;0.70;0.70;;;10.80;99.90;;;;;;6141349;29;20299;-67
2022/10/26 06:22:08;;;;;;;0.70;0.70;;;10.80;99.90;;;;;;6142362;29;20291;-68
2022/10/26 06:25:24;;;;;;;0.50;0.50;;;10.70;99.90;;;;;;6141247;29;20290;-68
2022/10/26 06:28:37;;;;;;;0.70;0.70;;;10.80;99.90;;;;;;6141950;29;20299;-67
2022/10/26 06:31:42;;;;;;;0.70;0.70;;;10.80;99.90;;;;;;6142733;29;20275;-68
2022/10/26 06:34:49;;;;;;;0.80;0.80;;;10.60;99.90;;;;;;6141830;29;20303;-67
2022/10/26 06:37:55;;;;;;;0.73;0.73;;;10.60;99.90;;;;;;6124823;29;20291;-67
2022/10/26 06:41:00;;;;;;;0.90;0.90;;;10.50;99.90;;;;;;6141703;29;20275;-67
2022/10/26 06:44:09;;;;;;;0.80;0.80;;;10.50;99.90;;;;;;6141761;29;20298;-67
2022/10/26 06:47:19;;;;;;;0.88;0.80;;;10.60;99.90;;;;;;6141547;29;20267;-68
2022/10/26 06:50:34;;;;;;;1.55;0.80;;;10.60;99.90;;;;;;6142219;29;20274;-67
2022/10/26 06:53:44;;;;;;;0.90;0.90;;;10.50;99.90;;;;;;6141283;29;20320;-68
2022/10/26 06:56:49;;;;;;;0.80;0.80;;;10.60;99.90;;;;;;6141812;29;20275;-68
2022/10/26 06:59:59;;;;;;;0.80;0.80;;;10.60;99.90;;;;;;6124158;29;20303;-68
2022/10/26 07:03:04;;;;;;;0.80;0.80;;;10.50;99.90;;;;;;6141292;29;20287;-68
2022/10/26 07:06:11;;;;;;;0.90;0.90;;;10.50;99.90;;;;;;6141919;29;20588;-68
2022/10/26 07:09:16;;;;;;;1.00;1.00;;;10.60;99.90;;;;;;6140941;29;20599;-68
2022/10/26 07:12:21;;;;;;;0.82;0.82;;;10.60;99.90;;;;;;6119253;29;20273;-68
2022/10/26 07:15:28;;;;;;;1.08;1.08;;;10.50;99.90;;;;;;6117933;29;20559;-68
2022/10/26 07:18:32;;;;;;;1.02;1.02;;;10.60;99.90;;;;;;6117099;29;20299;-68
2022/10/26 07:21:38;;;;;;;1.75;0.90;;;10.60;99.90;;;;;;6117618;29;20271;-68
2022/10/26 07:24:42;;;;;;;1.00;1.00;;;10.70;99.90;;;;;;6117394;29;20501;-68
2022/10/26 07:27:47;;;;;;;0.80;0.80;;;10.70;99.90;;;;;;6116954;29;20292;-68
2022/10/26 07:30:54;;;;;;;0.80;0.80;;;10.70;99.90;;;;;;6110583;29;20271;-66
2022/10/26 07:33:59;;;;;;;0.80;0.80;;;10.60;99.90;;;;;;6117144;29;20478;-66
2022/10/26 07:37:04;;;;;;;0.60;0.60;;;10.60;99.90;;;;;;6100089;29;20280;-66
2022/10/26 07:40:11;;;;;;;0.70;0.70;;;10.50;99.90;;;;;;6117684;29;20568;-67
2022/10/26 07:43:16;;;;;;;0.70;0.70;;;10.50;99.90;;;;;;6116467;29;20328;-67
2022/10/26 07:46:23;;;;;;;0.77;0.77;;;10.60;99.90;;;;;;6117079;29;20291;-67
2022/10/26 07:49:28;;;;;;;0.77;0.77;;;10.60;99.90;;;;;;6116750;29;20300;-67
2022/10/26 07:52:34;;;;;;;0.60;0.60;;;10.70;99.90;;;;;;6116309;29;20296;-67
2022/10/26 07:55:39;;;;;;;0.88;0.88;;;10.80;99.90;;;;;;6117393;29;20280;-67
2022/10/26 07:58:44;;;;;;;0.60;0.60;;;10.80;99.90;;;;;;6116684;29;20295;-67
2022/10/26 08:01:50;;;;;;;2.72;0.80;;;10.80;99.90;;;;;;6117122;29;20275;-68
2022/10/26 08:04:55;;;;;;;0.70;0.70;;;10.80;99.90;;;;;;6116227;29;20300;-67
2022/10/26 08:08:00;;;;;;;0.88;0.70;;;10.80;99.90;;;;;;6116056;29;20295;-67
2022/10/26 08:11:06;;;;;;;0.80;0.80;;;10.80;99.90;;;;;;6128465;29;20267;-67
2022/10/26 08:14:12;;;;;;;0.88;0.88;;;10.80;99.90;;;;;;6139913;29;20571;-66
2022/10/26 08:17:20;;;;;;;0.70;0.70;;;10.90;99.90;;;;;;6139906;29;20278;-67
2022/10/26 08:20:25;;;;;;;0.80;0.60;;;10.90;99.90;;;;;;6140568;29;20276;-68
2022/10/26 08:23:30;;;;;;;0.82;0.82;;;10.90;99.90;;;;;;6139483;29;20295;-67
2022/10/26 08:26:35;;;;;;;0.80;0.80;;;10.90;99.90;;;;;;6140268;29;20294;-67
2022/10/26 08:29:40;;;;;;;1.30;0.90;;;10.90;99.90;;;;;;6139898;29;20295;-67
2022/10/26 08:32:46;;;;;;;0.90;0.90;;;10.70;99.90;;;;;;6139887;29;20295;-67
2022/10/26 08:35:56;;;;;;;1.08;0.95;;;10.90;99.90;;;;;;6132566;29;20390;-67
2022/10/26 08:39:01;;;;;;;0.70;0.70;;;11.00;99.90;;;;;;6139286;29;20303;-67
2022/10/26 08:42:14;;;;;;;0.82;0.82;;;10.90;99.90;;;;;;6141414;29;20275;-67
2022/10/26 08:45:24;;;;;;;0.80;0.80;;;11.00;99.90;;;;;;6144547;29;20274;-67
2022/10/26 08:48:40;;;;;;;1.20;1.20;;;10.80;99.90;;;;;;6144531;29;20300;-67
2022/10/26 08:51:47;;;;;;;1.75;1.63;;;10.80;99.90;;;;;;6144259;29;20291;-67
2022/10/26 08:54:53;;;;;;;1.20;1.20;;;10.80;99.90;;;;;;6144303;29;20595;-67
2022/10/26 08:58:01;;;;;;;1.10;1.10;;;10.80;99.90;;;;;;6144028;29;20298;-67
2022/10/26 09:01:08;;;;;;;1.02;0.85;;;10.90;99.90;;;;;;6144659;29;20309;-67
2022/10/26 09:04:15;;;;;;;0.70;0.70;;;10.90;99.90;;;;;;6143736;29;20291;-67
2022/10/26 09:07:40;;;;;;;0.85;0.85;;;10.90;99.90;;;;;;6143426;29;20290;-67
2022/10/26 09:10:56;;;;;;;1.10;1.10;;;10.90;99.90;;;;;;6135535;29;20300;-67
2022/10/26 09:14:10;;;;;;;2.38;0.80;;;10.90;99.90;;;;;;6103365;29;20304;-67
2022/10/26 09:17:27;;;;;;;0.90;0.90;;;10.90;99.90;;;;;;6120103;29;20428;-67
2022/10/26 09:20:57;;;;;;;0.88;0.88;;;10.90;99.90;;;;;;6119869;29;20273;-67
2022/10/26 09:24:08;;;;;;;1.30;1.30;;;10.70;99.90;;;;;;6120304;29;20395;-67
2022/10/26 09:27:19;;;;;;;0.88;0.88;;;10.80;99.90;;;;;;6119613;29;20292;-68
2022/10/26 09:30:24;;;;;;;0.77;0.77;;;11.00;99.90;;;;;;6120427;29;20366;-68
2022/10/26 09:33:29;;;;;;;0.90;0.90;;;11.00;99.90;;;;;;6119964;29;20397;-68
2022/10/26 09:36:36;;;;;;;0.90;0.90;;;11.00;99.90;;;;;;6120275;29;20279;-67
2022/10/26 09:39:52;;;;;;;0.90;0.90;;;11.00;99.90;;;;;;6119881;29;20587;-67
2022/10/26 09:42:59;;;;;;;0.90;0.90;;;11.10;99.90;;;;;;6119473;29;20300;-67
2022/10/26 09:46:04;;;;;;;0.70;0.70;;;11.20;99.90;;;;;;6119926;29;20299;-67
2022/10/26 09:49:12;;;;;;;0.90;0.77;;;11.10;99.90;;;;;;6119404;29;20583;-67
2022/10/26 09:52:18;;;;;;;0.80;0.80;;;11.10;99.90;;;;;;6118675;29;20268;-67
2022/10/26 09:55:23;;;;;;;0.95;0.95;;;11.10;99.90;;;;;;6119201;29;20284;-67
2022/10/26 09:58:30;;;;;;;0.70;0.70;;;11.20;99.90;;;;;;6118955;29;20299;-67
2022/10/26 10:01:36;;;;;;;0.70;0.70;;;11.20;99.90;;;;;;6119493;29;20271;-67
2022/10/26 10:04:47;;;;;;;0.70;0.70;;;11.20;99.90;;;;;;6119010;29;20292;-68
2022/10/26 10:08:15;;;;;;;0.70;0.70;;;11.20;99.90;;;;;;6118665;29;20308;-67
2022/10/26 10:11:20;;;;;;;0.85;0.85;;;11.30;99.90;;;;;;6132627;29;20428;-67
2022/10/26 10:14:27;;;;;;;0.82;0.82;;;11.20;99.90;;;;;;6142637;29;20316;-68
2022/10/26 10:17:32;;;;;;;1.27;0.70;;;11.10;99.90;;;;;;6142429;29;20299;-67
2022/10/26 10:20:37;;;;;;;0.80;0.80;;;11.00;99.90;;;;;;6142274;29;20275;-70
2022/10/26 10:23:53;;;;;;;0.70;0.70;;;11.10;99.90;;;;;;6142041;29;20310;-67
2022/10/26 10:27:00;;;;;;;1.02;1.02;;;11.10;99.90;;;;;;6142552;29;20291;-67
2022/10/26 10:30:22;;;;;;;3.30;0.70;;;11.20;99.90;;;;;;6141782;29;20284;-68
2022/10/26 10:33:36;;;;;;;0.60;0.60;;;11.10;99.90;;;;;;6142156;29;20484;-68
2022/10/26 10:36:42;;;;;;;0.75;0.75;;;11.00;99.90;;;;;;6142246;29;20275;-68
2022/10/26 10:39:49;;;;;;;1.30;1.20;;;11.00;99.90;;;;;;6141820;29;20503;-68
2022/10/26 10:43:03;;;;;;;0.70;0.70;;;11.20;99.90;;;;;;6141926;29;20291;-68
2022/10/26 10:46:09;;;;;;;0.77;0.77;;;11.20;99.90;;;;;;6142509;29;20275;-68
2022/10/26 10:49:21;;;;;;;0.80;0.80;;;11.10;99.90;;;;;;6141476;29;20303;-68
2022/10/26 10:52:29;;;;;;;0.50;0.50;;;10.90;99.90;;;;;;6141683;29;20299;-68
2022/10/26 10:55:35;;;;;;;0.65;0.65;;;11.00;99.90;;;;;;6142001;29;20559;-68
2022/10/26 10:58:48;;;;;;;1.40;0.70;;;11.10;99.90;;;;;;6141716;29;20308;-68
2022/10/26 11:02:06;;;;;;;0.77;0.77;;;11.00;99.90;;;;;;6142084;29;20271;-68
2022/10/26 11:05:29;;;;;;;2.55;0.80;;;11.10;99.90;;;;;;6140565;29;20282;-68
2022/10/26 11:08:39;;;;;;;2.08;0.70;;;11.10;99.90;;;;;;6141004;29;20375;-68
2022/10/26 11:11:48;;;;;;;1.55;0.70;;;11.10;99.90;;;;;;6124481;29;20267;-68
2022/10/26 11:14:58;;;;;;;1.10;0.88;;;11.20;99.90;;;;;;6110244;29;20501;-68
2022/10/26 11:18:06;;;;;;;1.70;0.80;;;11.20;99.90;;;;;;6117460;29;20308;-68
2022/10/26 11:21:22;;;;;;;0.80;0.80;;;11.00;99.90;;;;;;6117890;29;20272;-68
2022/10/26 11:24:31;;;;;;;1.10;1.10;;;11.20;99.90;;;;;;6116807;29;20295;-67
2022/10/26 11:27:44;;;;;;;1.35;1.27;;;11.20;99.90;;;;;;6116767;29;20308;-67
2022/10/26 11:30:55;;;;;;;0.93;0.93;;;11.30;99.90;;;;;;6117806;29;20280;-67
2022/10/26 11:34:14;;;;;;;1.58;0.80;;;11.20;99.90;;;;;;6117076;29;20295;-67
2022/10/26 11:37:27;;;;;;;0.70;0.70;;;11.20;99.90;;;;;;6116606;29;20280;-67
2022/10/26 11:40:40;;;;;;;0.73;0.73;;;11.20;99.90;;;;;;6117302;29;20272;-67
2022/10/26 11:43:48;;;;;;;1.45;0.80;;;11.20;99.90;;;;;;6116980;29;20300;-68
2022/10/26 11:46:56;;;;;;;0.90;0.90;;;11.20;99.90;;;;;;6117266;29;20548;-68
2022/10/26 11:50:08;;;;;;;0.80;0.80;;;11.20;99.90;;;;;;6116840;29;20295;-67
2022/10/26 11:53:24;;;;;;;1.30;1.30;;;11.20;99.90;;;;;;6099564;29;20295;-68
2022/10/26 11:56:34;;;;;;;1.20;1.20;;;11.10;99.90;;;;;;6117206;29;20281;-68
2022/10/26 11:59:46;;;;;;;1.42;1.42;;;11.10;99.90;;;;;;6116492;29;20308;-68
2022/10/26 12:02:55;;;;;;;2.75;1.30;;;11.10;99.90;;;;;;6116515;29;20296;-68
2022/10/26 12:06:00;;;;;;;3.70;1.42;;;11.20;99.90;;;;;;6117328;29;20564;-68
2022/10/26 12:09:09;;;;;;;1.75;1.20;;;11.10;99.90;;;;;;6099870;29;20315;-68
2022/10/26 12:12:21;;;;;;;1.15;1.15;;;11.00;99.90;;;;;;6115761;29;20268;-68
2022/10/26 12:15:34;;;;;;;6.03;1.40;;;11.10;99.90;;;;;;6116525;29;20272;-68
2022/10/26 12:19:05;;;;;;;1.00;1.00;;;11.20;99.90;;;;;;6116253;29;20303;-68
2022/10/26 12:22:14;;;;;;;1.67;1.13;;;11.10;99.90;;;;;;6116427;29;20275;-68
2022/10/26 12:25:22;;;;;;;1.10;1.10;;;11.10;99.90;;;;;;6116947;29;20291;-68
2022/10/26 12:28:41;;;;;;;1.08;1.08;;;11.10;99.90;;;;;;6116282;29;20308;-68
2022/10/26 12:31:48;;;;;;;1.10;1.10;;;11.20;99.90;;;;;;6116358;29;20452;-68
2022/10/26 12:35:02;;;;;;;1.20;1.20;;;11.20;99.90;;;;;;6116003;29;20299;-68
2022/10/26 12:38:56;;;;;;;1.33;1.33;;;11.20;99.90;;;;;;6116164;29;20652;-67
2022/10/26 12:42:29;;;;;;;2.05;1.30;;;11.20;99.90;;;;;;6116107;29;20272;-67
2022/10/26 12:45:34;;;;;;;1.88;1.33;;;11.20;99.90;;;;;;6115318;29;20279;-67
2022/10/26 12:48:45;;;;;;;1.27;1.27;;;11.30;99.90;;;;;;6116175;29;20312;-67
2022/10/26 12:51:50;;;;;;;1.88;1.10;;;11.20;99.90;;;;;;6116394;29;20275;-68
2022/10/26 12:55:30;;;;;;;1.65;1.05;;;11.10;99.90;;;;;;6116101;29;20295;-67
2022/10/26 12:59:05;;;;;;;1.02;1.02;;;11.10;99.90;;;;;;6095068;29;20299;-67
2022/10/26 13:02:42;;;;;;;1.70;1.05;;;11.10;99.90;;;;;;6115513;29;20272;-69
2022/10/26 13:06:16;;;;;;;1.00;0.98;;;11.20;99.90;;;;;;6116516;29;20276;-67
2022/10/26 13:09:23;;;;;;;1.17;0.93;;;11.20;99.90;;;;;;6127538;29;20442;-67
2022/10/26 13:12:36;;;;;;;1.02;1.00;;;11.20;99.90;;;;;;6116639;29;20295;-67
2022/10/26 13:15:53;;;;;;;0.90;0.90;;;11.30;99.90;;;;;;6115743;29;20272;-67
2022/10/26 13:18:58;;;;;;;1.00;1.00;;;11.30;99.90;;;;;;6115807;29;20609;-68
2022/10/26 13:22:04;;;;;;;1.33;1.30;;;11.20;99.90;;;;;;6116096;29;20590;-68
2022/10/26 13:25:22;;;;;;;1.35;1.00;;;11.20;99.90;;;;;;6114639;29;20272;-68
2022/10/26 13:28:45;;;;;;;1.20;1.15;;;11.10;99.90;;;;;;6117817;29;20307;-68
2022/10/26 13:31:57;;;;;;;1.20;1.20;;;11.10;99.90;;;;;;6120403;29;20277;-68
2022/10/26 13:35:03;;;;;;;1.10;1.10;;;11.00;99.90;;;;;;6119607;29;20316;-68
2022/10/26 13:38:15;;;;;;;1.10;1.10;;;11.00;99.90;;;;;;6119507;29;20316;-68
2022/10/26 13:41:30;;;;;;;2.38;1.10;;;11.00;99.90;;;;;;6120122;29;20272;-68
2022/10/26 13:44:40;;;;;;;1.58;1.50;;;11.00;99.90;;;;;;6119477;29;20307;-68
2022/10/26 13:47:49;;;;;;;1.00;1.00;;;11.00;99.90;;;;;;6119191;29;20295;-68
2022/10/26 13:50:57;;;;;;;1.25;1.25;;;11.00;99.90;;;;;;6119431;29;20296;-68
2022/10/26 13:54:21;;;;;;;1.23;1.17;;;11.00;99.90;;;;;;6119026;29;20299;-68
2022/10/26 13:57:32;;;;;;;2.53;0.93;;;10.90;99.90;;;;;;6119085;29;20288;-68
2022/10/26 14:00:37;;;;;;;1.45;1.00;;;10.80;99.90;;;;;;6119650;29;20272;-68
2022/10/26 14:03:42;;;;;;;1.02;1.02;;;10.90;99.90;;;;;;6118411;29;20295;-67
2022/10/26 14:06:51;;;;;;;1.10;1.10;;;10.90;99.90;;;;;;6119167;29;20592;-67
2022/10/26 14:09:58;;;;;;;3.45;1.15;;;11.00;99.90;;;;;;6121309;29;20315;-67
2022/10/26 14:13:08;;;;;;;1.10;1.00;;;10.90;99.90;;;;;;6142097;29;20299;-67
2022/10/26 14:16:17;;;;;;;1.10;1.10;;;10.90;99.90;;;;;;6142673;29;20271;-68
2022/10/26 14:19:27;;;;;;;1.13;1.13;;;11.00;99.90;;;;;;6141991;29;20298;-68
2022/10/26 14:22:32;;;;;;;2.65;2.13;;;11.00;99.90;;;;;;6141993;29;20291;-67
2022/10/26 14:25:39;;;;;;;2.92;2.70;;;10.90;99.90;;;;;;6142781;29;20267;-68
2022/10/26 14:29:00;;;;;;;2.20;2.10;;;10.90;99.90;;;;;;6141614;29;20300;-67
2022/10/26 14:32:21;;;;;;;1.40;1.40;;;11.00;99.90;;;;;;6125204;29;20275;-67
2022/10/26 14:35:30;;;;;;;1.30;1.30;;;10.90;99.90;;;;;;6142061;29;20271;-67
2022/10/26 14:38:43;;;;;;;1.08;1.02;;;10.90;99.90;;;;;;6141243;28;20299;-67
2022/10/26 14:41:49;;;;;;;2.85;1.13;;;11.00;99.90;;;;;;6141629;29;20272;-68
2022/10/26 14:44:54;;;;;;;1.27;1.13;;;10.80;99.90;;;;;;6141106;29;20299;-68
2022/10/26 14:47:59;;;;;;;1.95;1.15;;;10.90;99.90;;;;;;6141221;29;20303;-67
2022/10/26 14:51:11;;;;;;;1.40;1.40;;;10.90;99.90;;;;;;6142092;29;20294;-67
2022/10/26 14:54:24;;;;;;;1.75;1.20;;;10.90;99.90;;;;;;6141275;29;20300;-68
2022/10/26 14:57:36;;;;;;;1.30;1.30;;;11.00;99.90;;;;;;6141084;29;20611;-67
2022/10/26 15:00:42;;;;;;;1.40;1.40;;;11.00;99.90;;;;;;6141622;29;20300;-67
2022/10/26 15:03:48;;;;;;;2.08;2.00;;;10.80;99.90;;;;;;6141292;29;20291;-67
2022/10/26 15:06:53;;;;;;;1.70;1.60;;;10.80;99.90;;;;;;6141910;29;20271;-67
2022/10/26 15:09:58;;;;;;;2.10;2.10;;;10.70;99.90;;;;;;6137520;29;20303;-67
2022/10/26 15:13:10;;;;;;;1.80;1.80;;;10.70;99.90;;;;;;6117355;29;20491;-67
2022/10/26 15:16:19;;;;;;;4.90;1.52;;;10.80;99.90;;;;;;6117935;29;20279;-67
2022/10/26 15:19:24;;;;;;;2.95;2.17;;;10.90;99.90;;;;;;6117103;29;20300;-67
2022/10/26 15:22:29;;;;;;;2.70;1.70;;;10.90;99.90;;;;;;6116657;29;20295;-67
2022/10/26 15:25:36;;;;;;;1.85;1.70;;;10.90;99.90;;;;;;6116938;29;20363;-67
2022/10/26 15:28:42;;;;;;;1.60;1.60;;;10.90;99.90;;;;;;6116769;29;20304;-67
2022/10/26 15:31:47;;;;;;;4.93;2.00;;;10.90;99.90;;;;;;6116979;29;20296;-68
2022/10/26 15:35:16;;;;;;;1.73;1.60;;;10.90;99.90;;;;;;6116629;29;20316;-68
2022/10/26 15:38:21;;;;;;;1.70;1.60;;;10.90;99.90;;;;;;6116927;29;20325;-68
2022/10/26 15:41:28;;;;;;;1.50;1.40;;;10.90;99.90;;;;;;6117317;29;20564;-68
2022/10/26 15:44:34;;;;;;;2.15;2.05;;;10.80;99.90;;;;;;6116853;29;20296;-68
2022/10/26 15:47:39;;;;;;;2.00;1.90;;;10.70;99.90;;;;;;6116965;29;20295;-68
2022/10/26 15:50:44;;;;;;;1.98;1.88;;;10.80;99.90;;;;;;6116009;29;20287;-67
2022/10/26 15:53:49;;;;;;;1.60;1.60;;;10.70;99.90;;;;;;6116429;29;20305;-66
2022/10/26 15:56:54;;;;;;;1.52;1.52;;;10.70;99.90;;;;;;6117009;29;20272;-67
2022/10/26 16:00:00;;;;;;;1.60;1.60;;;10.70;99.90;;;;;;6116675;29;20595;-68
2022/10/26 16:03:16;;;;;;;2.10;1.98;;;10.70;99.90;;;;;;6116273;29;20292;-68
2022/10/26 16:06:27;;;;;;;1.60;1.60;;;10.70;99.90;;;;;;6116755;29;20276;-67
2022/10/26 16:09:32;;;;;;;2.13;2.13;;;10.60;99.90;;;;;;6115888;29;20295;-67
2022/10/26 16:12:37;;;;;;;2.05;1.92;;;10.50;99.90;;;;;;6092374;29;20320;-68
2022/10/26 16:15:43;;;;;;;1.65;1.65;;;10.50;99.90;;;;;;6092817;29;20557;-68
2022/10/26 16:18:53;;;;;;;1.77;1.67;;;10.50;99.90;;;;;;6092424;29;20296;-68
2022/10/26 16:22:18;;;;;;;2.45;1.60;;;10.50;99.90;;;;;;6075902;29;20460;-67
2022/10/26 16:25:24;;;;;;;1.60;1.60;;;10.50;99.90;;;;;;6092630;29;20276;-68
2022/10/26 16:28:30;;;;;;;1.83;1.83;;;10.60;99.90;;;;;;6092328;29;20300;-68